sensor_id;sensor_type;location;lat;lon;timestamp;temperature;humidity
54938;DHT22;52756;52.826;6.214;2023-07-08T00:00:53;18.90;59.20
54938;DHT22;52756;52.826;6.214;2023-07-08T00:03:19;19.00;59.30
54938;DHT22;52756;52.826;6.214;2023-07-08T00:05:46;18.90;59.20
54938;DHT22;52756;52.826;6.214;2023-07-08T00:08:17;18.90;59.10
54938;DHT22;52756;52.826;6.214;2023-07-08T00:10:43;18.90;59.30
54938;DHT22;52756;52.826;6.214;2023-07-08T00:13:10;18.90;59.30
54938;DHT22;52756;52.826;6.214;2023-07-08T00:15:36;18.90;59.30
54938;DHT22;52756;52.826;6.214;2023-07-08T00:18:13;18.80;59.30
54938;DHT22;52756;52.826;6.214;2023-07-08T00:20:40;18.80;59.40
54938;DHT22;52756;52.826;6.214;2023-07-08T00:23:09;18.80;59.40
54938;DHT22;52756;52.826;6.214;2023-07-08T00:25:35;18.80;59.60
54938;DHT22;52756;52.826;6.214;2023-07-08T00:28:01;18.70;59.50
54938;DHT22;52756;52.826;6.214;2023-07-08T00:30:30;18.70;59.50
54938;DHT22;52756;52.826;6.214;2023-07-08T00:32:56;18.70;59.70
54938;DHT22;52756;52.826;6.214;2023-07-08T00:35:33;18.70;59.80
54938;DHT22;52756;52.826;6.214;2023-07-08T00:37:59;18.60;59.80
54938;DHT22;52756;52.826;6.214;2023-07-08T00:40:30;18.60;59.90
54938;DHT22;52756;52.826;6.214;2023-07-08T00:42:56;18.50;59.90
54938;DHT22;52756;52.826;6.214;2023-07-08T00:45:36;18.50;60.00
54938;DHT22;52756;52.826;6.214;2023-07-08T00:48:28;18.50;60.20
54938;DHT22;52756;52.826;6.214;2023-07-08T00:50:54;18.50;60.10
54938;DHT22;52756;52.826;6.214;2023-07-08T00:53:28;18.50;60.10
54938;DHT22;52756;52.826;6.214;2023-07-08T00:56:00;18.50;60.20
54938;DHT22;52756;52.826;6.214;2023-07-08T00:58:34;18.40;60.30
54938;DHT22;52756;52.826;6.214;2023-07-08T01:01:02;18.40;60.30
54938;DHT22;52756;52.826;6.214;2023-07-08T01:03:29;18.40;60.30
54938;DHT22;52756;52.826;6.214;2023-07-08T01:05:57;18.40;60.30
54938;DHT22;52756;52.826;6.214;2023-07-08T01:08:26;18.30;60.40
54938;DHT22;52756;52.826;6.214;2023-07-08T01:11:00;18.30;60.50
54938;DHT22;52756;52.826;6.214;2023-07-08T01:13:32;18.30;60.50
54938;DHT22;52756;52.826;6.214;2023-07-08T01:15:59;18.30;60.70
54938;DHT22;52756;52.826;6.214;2023-07-08T01:18:25;18.20;60.60
54938;DHT22;52756;52.826;6.214;2023-07-08T01:20:51;18.20;60.70
54938;DHT22;52756;52.826;6.214;2023-07-08T01:23:21;18.20;60.90
54938;DHT22;52756;52.826;6.214;2023-07-08T01:25:47;18.20;60.90
54938;DHT22;52756;52.826;6.214;2023-07-08T01:28:13;18.20;61.00
54938;DHT22;52756;52.826;6.214;2023-07-08T01:30:41;18.20;61.00
54938;DHT22;52756;52.826;6.214;2023-07-08T01:33:15;18.10;61.00
54938;DHT22;52756;52.826;6.214;2023-07-08T01:35:42;18.20;61.00
54938;DHT22;52756;52.826;6.214;2023-07-08T01:38:10;18.10;61.00
54938;DHT22;52756;52.826;6.214;2023-07-08T01:40:38;18.20;61.00
54938;DHT22;52756;52.826;6.214;2023-07-08T01:43:05;18.20;61.00
54938;DHT22;52756;52.826;6.214;2023-07-08T01:45:39;18.10;61.10
54938;DHT22;52756;52.826;6.214;2023-07-08T01:48:14;18.10;61.00
54938;DHT22;52756;52.826;6.214;2023-07-08T01:51:01;18.10;61.00
54938;DHT22;52756;52.826;6.214;2023-07-08T01:53:34;18.20;60.90
54938;DHT22;52756;52.826;6.214;2023-07-08T01:56:00;18.10;60.90
54938;DHT22;52756;52.826;6.214;2023-07-08T01:58:27;18.20;60.80
54938;DHT22;52756;52.826;6.214;2023-07-08T02:00:53;18.20;60.80
54938;DHT22;52756;52.826;6.214;2023-07-08T02:03:20;18.20;60.80
54938;DHT22;52756;52.826;6.214;2023-07-08T02:05:46;18.20;60.80
54938;DHT22;52756;52.826;6.214;2023-07-08T02:08:12;18.20;60.70
54938;DHT22;52756;52.826;6.214;2023-07-08T02:10:39;18.20;60.70
54938;DHT22;52756;52.826;6.214;2023-07-08T02:13:05;18.20;60.70
54938;DHT22;52756;52.826;6.214;2023-07-08T02:15:31;18.20;60.80
54938;DHT22;52756;52.826;6.214;2023-07-08T02:17:57;18.20;60.80
54938;DHT22;52756;52.826;6.214;2023-07-08T02:20:23;18.20;60.90
54938;DHT22;52756;52.826;6.214;2023-07-08T02:22:49;18.10;60.80
54938;DHT22;52756;52.826;6.214;2023-07-08T02:25:14;18.10;60.90
54938;DHT22;52756;52.826;6.214;2023-07-08T02:27:41;18.10;60.80
54938;DHT22;52756;52.826;6.214;2023-07-08T02:30:08;18.00;61.00
54938;DHT22;52756;52.826;6.214;2023-07-08T02:32:34;18.10;61.00
54938;DHT22;52756;52.826;6.214;2023-07-08T02:35:05;18.10;61.00
54938;DHT22;52756;52.826;6.214;2023-07-08T02:37:31;18.10;61.10
54938;DHT22;52756;52.826;6.214;2023-07-08T02:39:57;18.00;61.10
54938;DHT22;52756;52.826;6.214;2023-07-08T02:42:23;18.00;61.20
54938;DHT22;52756;52.826;6.214;2023-07-08T02:44:49;17.90;61.20
54938;DHT22;52756;52.826;6.214;2023-07-08T02:47:15;17.90;61.20
54938;DHT22;52756;52.826;6.214;2023-07-08T02:49:40;17.90;61.20
54938;DHT22;52756;52.826;6.214;2023-07-08T02:52:06;17.90;61.30
54938;DHT22;52756;52.826;6.214;2023-07-08T02:54:32;17.90;61.90
54938;DHT22;52756;52.826;6.214;2023-07-08T02:56:58;17.90;61.50
54938;DHT22;52756;52.826;6.214;2023-07-08T02:59:23;17.80;61.60
54938;DHT22;52756;52.826;6.214;2023-07-08T03:01:49;17.80;61.70
54938;DHT22;52756;52.826;6.214;2023-07-08T03:04:16;17.80;61.70
54938;DHT22;52756;52.826;6.214;2023-07-08T03:06:45;17.80;61.70
54938;DHT22;52756;52.826;6.214;2023-07-08T03:09:12;17.80;61.80
54938;DHT22;52756;52.826;6.214;2023-07-08T03:11:38;17.80;61.90
54938;DHT22;52756;52.826;6.214;2023-07-08T03:14:05;17.70;61.90
54938;DHT22;52756;52.826;6.214;2023-07-08T03:16:31;17.70;62.00
54938;DHT22;52756;52.826;6.214;2023-07-08T03:18:57;17.70;62.10
54938;DHT22;52756;52.826;6.214;2023-07-08T03:21:23;17.70;62.20
54938;DHT22;52756;52.826;6.214;2023-07-08T03:23:50;17.60;62.10
54938;DHT22;52756;52.826;6.214;2023-07-08T03:26:21;17.70;62.40
54938;DHT22;52756;52.826;6.214;2023-07-08T03:28:48;17.60;62.30
54938;DHT22;52756;52.826;6.214;2023-07-08T03:31:14;17.60;62.40
54938;DHT22;52756;52.826;6.214;2023-07-08T03:33:40;17.60;62.40
54938;DHT22;52756;52.826;6.214;2023-07-08T03:36:12;17.60;62.60
54938;DHT22;52756;52.826;6.214;2023-07-08T03:38:38;17.60;62.50
54938;DHT22;52756;52.826;6.214;2023-07-08T03:41:05;17.50;62.40
54938;DHT22;52756;52.826;6.214;2023-07-08T03:43:30;17.50;62.50
54938;DHT22;52756;52.826;6.214;2023-07-08T03:45:56;17.50;62.60
54938;DHT22;52756;52.826;6.214;2023-07-08T03:48:22;17.50;62.70
54938;DHT22;52756;52.826;6.214;2023-07-08T03:50:48;17.50;62.80
54938;DHT22;52756;52.826;6.214;2023-07-08T03:53:13;17.50;62.80
54938;DHT22;52756;52.826;6.214;2023-07-08T03:55:39;17.50;62.90
54938;DHT22;52756;52.826;6.214;2023-07-08T03:58:05;17.50;62.90
54938;DHT22;52756;52.826;6.214;2023-07-08T04:00:31;17.50;63.50
54938;DHT22;52756;52.826;6.214;2023-07-08T04:02:56;17.40;63.10
54938;DHT22;52756;52.826;6.214;2023-07-08T04:05:23;17.40;63.30
54938;DHT22;52756;52.826;6.214;2023-07-08T04:07:49;17.40;63.50
54938;DHT22;52756;52.826;6.214;2023-07-08T04:10:15;17.40;63.60
54938;DHT22;52756;52.826;6.214;2023-07-08T04:12:42;17.30;63.60
54938;DHT22;52756;52.826;6.214;2023-07-08T04:15:09;17.30;63.70
54938;DHT22;52756;52.826;6.214;2023-07-08T04:17:47;17.30;63.90
54938;DHT22;52756;52.826;6.214;2023-07-08T04:20:15;17.30;64.00
54938;DHT22;52756;52.826;6.214;2023-07-08T04:22:41;17.30;64.00
54938;DHT22;52756;52.826;6.214;2023-07-08T04:25:07;17.30;64.10
54938;DHT22;52756;52.826;6.214;2023-07-08T04:27:33;17.30;64.30
54938;DHT22;52756;52.826;6.214;2023-07-08T04:29:59;17.30;64.40
54938;DHT22;52756;52.826;6.214;2023-07-08T04:32:25;17.30;64.60
54938;DHT22;52756;52.826;6.214;2023-07-08T04:34:51;17.30;64.70
54938;DHT22;52756;52.826;6.214;2023-07-08T04:37:17;17.30;64.80
54938;DHT22;52756;52.826;6.214;2023-07-08T04:39:45;17.30;64.70
54938;DHT22;52756;52.826;6.214;2023-07-08T04:42:10;17.30;64.80
54938;DHT22;52756;52.826;6.214;2023-07-08T04:44:38;17.30;64.90
54938;DHT22;52756;52.826;6.214;2023-07-08T04:47:04;17.30;65.00
54938;DHT22;52756;52.826;6.214;2023-07-08T04:49:30;17.30;65.10
54938;DHT22;52756;52.826;6.214;2023-07-08T04:51:57;17.30;65.10
54938;DHT22;52756;52.826;6.214;2023-07-08T04:54:24;17.30;65.40
54938;DHT22;52756;52.826;6.214;2023-07-08T04:56:50;17.30;65.40
54938;DHT22;52756;52.826;6.214;2023-07-08T04:59:20;17.30;65.30
54938;DHT22;52756;52.826;6.214;2023-07-08T05:01:46;17.30;65.40
54938;DHT22;52756;52.826;6.214;2023-07-08T05:04:14;17.30;65.60
54938;DHT22;52756;52.826;6.214;2023-07-08T05:06:41;17.30;65.70
54938;DHT22;52756;52.826;6.214;2023-07-08T05:09:07;17.40;65.80
54938;DHT22;52756;52.826;6.214;2023-07-08T05:11:33;17.40;65.90
54938;DHT22;52756;52.826;6.214;2023-07-08T05:13:59;17.40;65.90
54938;DHT22;52756;52.826;6.214;2023-07-08T05:16:26;17.40;66.00
54938;DHT22;52756;52.826;6.214;2023-07-08T05:18:52;17.50;66.00
54938;DHT22;52756;52.826;6.214;2023-07-08T05:21:19;17.60;65.90
54938;DHT22;52756;52.826;6.214;2023-07-08T05:23:46;17.70;65.70
54938;DHT22;52756;52.826;6.214;2023-07-08T05:26:12;17.80;65.60
54938;DHT22;52756;52.826;6.214;2023-07-08T05:28:38;18.00;65.70
54938;DHT22;52756;52.826;6.214;2023-07-08T05:31:03;18.20;65.20
54938;DHT22;52756;52.826;6.214;2023-07-08T05:33:30;18.40;64.90
54938;DHT22;52756;52.826;6.214;2023-07-08T05:35:57;18.70;64.00
54938;DHT22;52756;52.826;6.214;2023-07-08T05:38:23;18.90;63.30
54938;DHT22;52756;52.826;6.214;2023-07-08T05:40:57;19.10;63.20
54938;DHT22;52756;52.826;6.214;2023-07-08T05:43:23;19.30;61.90
54938;DHT22;52756;52.826;6.214;2023-07-08T05:45:49;19.50;61.30
54938;DHT22;52756;52.826;6.214;2023-07-08T05:48:15;19.70;61.10
54938;DHT22;52756;52.826;6.214;2023-07-08T05:50:41;19.90;60.20
54938;DHT22;52756;52.826;6.214;2023-07-08T05:53:10;20.10;59.50
54938;DHT22;52756;52.826;6.214;2023-07-08T05:55:37;20.30;59.60
54938;DHT22;52756;52.826;6.214;2023-07-08T05:58:02;20.60;59.20
54938;DHT22;52756;52.826;6.214;2023-07-08T06:00:28;20.80;58.70
54938;DHT22;52756;52.826;6.214;2023-07-08T06:02:54;21.00;57.80
54938;DHT22;52756;52.826;6.214;2023-07-08T06:05:20;21.10;57.00
54938;DHT22;52756;52.826;6.214;2023-07-08T06:07:45;21.20;56.70
54938;DHT22;52756;52.826;6.214;2023-07-08T06:10:11;21.40;56.70
54938;DHT22;52756;52.826;6.214;2023-07-08T06:12:37;21.60;56.40
54938;DHT22;52756;52.826;6.214;2023-07-08T06:15:03;21.90;56.00
54938;DHT22;52756;52.826;6.214;2023-07-08T06:17:29;22.20;55.30
54938;DHT22;52756;52.826;6.214;2023-07-08T06:19:54;22.30;54.70
54938;DHT22;52756;52.826;6.214;2023-07-08T06:22:20;22.50;53.90
54938;DHT22;52756;52.826;6.214;2023-07-08T06:24:46;22.60;53.40
54938;DHT22;52756;52.826;6.214;2023-07-08T06:27:13;22.70;53.40
54938;DHT22;52756;52.826;6.214;2023-07-08T06:29:39;22.80;53.00
54938;DHT22;52756;52.826;6.214;2023-07-08T06:32:05;23.00;52.50
54938;DHT22;52756;52.826;6.214;2023-07-08T06:34:31;23.10;52.00
54938;DHT22;52756;52.826;6.214;2023-07-08T06:36:57;23.30;52.00
54938;DHT22;52756;52.826;6.214;2023-07-08T06:39:22;23.50;51.70
54938;DHT22;52756;52.826;6.214;2023-07-08T06:41:48;23.80;51.30
54938;DHT22;52756;52.826;6.214;2023-07-08T06:44:14;23.90;51.40
54938;DHT22;52756;52.826;6.214;2023-07-08T06:46:40;24.10;50.40
54938;DHT22;52756;52.826;6.214;2023-07-08T06:49:06;24.20;49.50
54938;DHT22;52756;52.826;6.214;2023-07-08T06:51:35;24.20;49.20
54938;DHT22;52756;52.826;6.214;2023-07-08T06:54:01;24.20;49.20
54938;DHT22;52756;52.826;6.214;2023-07-08T06:56:38;24.20;50.10
54938;DHT22;52756;52.826;6.214;2023-07-08T06:59:04;24.40;49.40
54938;DHT22;52756;52.826;6.214;2023-07-08T07:01:30;24.40;49.60
54938;DHT22;52756;52.826;6.214;2023-07-08T07:03:56;24.40;48.40
54938;DHT22;52756;52.826;6.214;2023-07-08T07:06:21;24.40;47.80
54938;DHT22;52756;52.826;6.214;2023-07-08T07:08:47;24.40;48.40
54938;DHT22;52756;52.826;6.214;2023-07-08T07:11:13;24.40;48.60
54938;DHT22;52756;52.826;6.214;2023-07-08T07:13:39;24.40;49.30
54938;DHT22;52756;52.826;6.214;2023-07-08T07:16:05;24.50;49.20
54938;DHT22;52756;52.826;6.214;2023-07-08T07:18:31;24.70;48.70
54938;DHT22;52756;52.826;6.214;2023-07-08T07:20:58;24.80;48.30
54938;DHT22;52756;52.826;6.214;2023-07-08T07:23:24;25.00;48.10
54938;DHT22;52756;52.826;6.214;2023-07-08T07:25:50;25.20;47.80
54938;DHT22;52756;52.826;6.214;2023-07-08T07:28:16;25.30;48.30
54938;DHT22;52756;52.826;6.214;2023-07-08T07:30:45;25.40;47.10
54938;DHT22;52756;52.826;6.214;2023-07-08T07:33:12;25.40;46.30
54938;DHT22;52756;52.826;6.214;2023-07-08T07:35:45;25.40;46.40
54938;DHT22;52756;52.826;6.214;2023-07-08T07:38:11;25.40;47.00
54938;DHT22;52756;52.826;6.214;2023-07-08T07:40:38;25.50;47.20
54938;DHT22;52756;52.826;6.214;2023-07-08T07:43:04;25.50;46.80
54938;DHT22;52756;52.826;6.214;2023-07-08T07:45:30;25.60;45.90
54938;DHT22;52756;52.826;6.214;2023-07-08T07:47:56;25.70;45.70
54938;DHT22;52756;52.826;6.214;2023-07-08T07:50:21;25.70;45.50
54938;DHT22;52756;52.826;6.214;2023-07-08T07:52:47;25.80;45.10
54938;DHT22;52756;52.826;6.214;2023-07-08T07:55:13;25.70;45.50
54938;DHT22;52756;52.826;6.214;2023-07-08T07:57:38;25.70;46.20
54938;DHT22;52756;52.826;6.214;2023-07-08T08:00:05;25.70;46.00
54938;DHT22;52756;52.826;6.214;2023-07-08T08:02:31;25.80;45.80
54938;DHT22;52756;52.826;6.214;2023-07-08T08:04:56;25.80;45.40
54938;DHT22;52756;52.826;6.214;2023-07-08T08:07:22;25.90;45.30
54938;DHT22;52756;52.826;6.214;2023-07-08T08:09:48;26.00;45.10
54938;DHT22;52756;52.826;6.214;2023-07-08T08:12:13;26.20;44.90
54938;DHT22;52756;52.826;6.214;2023-07-08T08:14:39;26.20;45.20
54938;DHT22;52756;52.826;6.214;2023-07-08T08:17:05;26.30;45.00
54938;DHT22;52756;52.826;6.214;2023-07-08T08:19:31;26.40;45.00
54938;DHT22;52756;52.826;6.214;2023-07-08T08:21:57;26.50;44.60
54938;DHT22;52756;52.826;6.214;2023-07-08T08:24:23;26.60;44.10
54938;DHT22;52756;52.826;6.214;2023-07-08T08:26:49;26.70;44.50
54938;DHT22;52756;52.826;6.214;2023-07-08T08:29:14;26.80;45.00
54938;DHT22;52756;52.826;6.214;2023-07-08T08:31:40;26.90;44.20
54938;DHT22;52756;52.826;6.214;2023-07-08T08:34:06;26.90;44.30
54938;DHT22;52756;52.826;6.214;2023-07-08T08:36:31;27.00;44.30
54938;DHT22;52756;52.826;6.214;2023-07-08T08:38:57;27.00;44.30
54938;DHT22;52756;52.826;6.214;2023-07-08T08:41:31;27.10;44.40
54938;DHT22;52756;52.826;6.214;2023-07-08T08:43:58;27.20;43.30
54938;DHT22;52756;52.826;6.214;2023-07-08T08:46:51;27.20;43.70
54938;DHT22;52756;52.826;6.214;2023-07-08T08:51:58;27.20;43.00
54938;DHT22;52756;52.826;6.214;2023-07-08T08:54:25;27.20;43.10
54938;DHT22;52756;52.826;6.214;2023-07-08T08:59:55;27.40;43.90
54938;DHT22;52756;52.826;6.214;2023-07-08T09:04:48;27.50;44.60
54938;DHT22;52756;52.826;6.214;2023-07-08T09:07:17;27.50;43.60
54938;DHT22;52756;52.826;6.214;2023-07-08T09:12:23;27.50;43.90
54938;DHT22;52756;52.826;6.214;2023-07-08T09:14:50;27.50;44.30
54938;DHT22;52756;52.826;6.214;2023-07-08T09:17:20;27.60;44.50
54938;DHT22;52756;52.826;6.214;2023-07-08T09:20:17;27.70;43.50
54938;DHT22;52756;52.826;6.214;2023-07-08T09:22:57;27.80;43.60
54938;DHT22;52756;52.826;6.214;2023-07-08T09:25:34;27.80;44.50
54938;DHT22;52756;52.826;6.214;2023-07-08T09:28:02;27.90;44.90
54938;DHT22;52756;52.826;6.214;2023-07-08T09:30:27;27.90;43.80
54938;DHT22;52756;52.826;6.214;2023-07-08T09:32:56;27.90;43.70
54938;DHT22;52756;52.826;6.214;2023-07-08T09:35:25;28.00;43.30
54938;DHT22;52756;52.826;6.214;2023-07-08T09:37:51;28.00;43.90
54938;DHT22;52756;52.826;6.214;2023-07-08T09:40:20;28.10;44.00
54938;DHT22;52756;52.826;6.214;2023-07-08T09:42:50;28.20;44.30
54938;DHT22;52756;52.826;6.214;2023-07-08T09:45:23;28.20;44.30
54938;DHT22;52756;52.826;6.214;2023-07-08T09:47:54;28.30;44.20
54938;DHT22;52756;52.826;6.214;2023-07-08T09:50:29;28.50;44.20
54938;DHT22;52756;52.826;6.214;2023-07-08T09:52:58;28.60;43.50
54938;DHT22;52756;52.826;6.214;2023-07-08T09:55:26;28.70;44.20
54938;DHT22;52756;52.826;6.214;2023-07-08T09:57:55;28.90;43.80
54938;DHT22;52756;52.826;6.214;2023-07-08T10:00:32;29.00;43.20
54938;DHT22;52756;52.826;6.214;2023-07-08T10:03:04;29.10;42.80
54938;DHT22;52756;52.826;6.214;2023-07-08T10:05:40;29.20;43.30
54938;DHT22;52756;52.826;6.214;2023-07-08T10:08:21;29.30;43.20
54938;DHT22;52756;52.826;6.214;2023-07-08T10:10:48;29.40;43.00
54938;DHT22;52756;52.826;6.214;2023-07-08T10:13:28;29.40;41.90
54938;DHT22;52756;52.826;6.214;2023-07-08T10:16:24;29.50;41.60
54938;DHT22;52756;52.826;6.214;2023-07-08T10:18:51;29.50;40.30
54938;DHT22;52756;52.826;6.214;2023-07-08T10:26:46;29.40;41.50
54938;DHT22;52756;52.826;6.214;2023-07-08T10:29:31;29.40;41.70
54938;DHT22;52756;52.826;6.214;2023-07-08T10:42:41;29.80;41.40
54938;DHT22;52756;52.826;6.214;2023-07-08T10:45:26;29.90;41.20
54938;DHT22;52756;52.826;6.214;2023-07-08T10:48:38;30.00;40.50
54938;DHT22;52756;52.826;6.214;2023-07-08T10:51:23;30.10;40.70
54938;DHT22;52756;52.826;6.214;2023-07-08T10:56:54;30.20;40.60
54938;DHT22;52756;52.826;6.214;2023-07-08T11:07:40;30.70;39.50
54938;DHT22;52756;52.826;6.214;2023-07-08T11:10:31;30.80;39.20
54938;DHT22;52756;52.826;6.214;2023-07-08T11:13:02;30.90;40.00
54938;DHT22;52756;52.826;6.214;2023-07-08T11:15:33;31.00;39.10
54938;DHT22;52756;52.826;6.214;2023-07-08T11:18:12;31.20;38.40
54938;DHT22;52756;52.826;6.214;2023-07-08T11:25:50;31.50;38.80
54938;DHT22;52756;52.826;6.214;2023-07-08T11:28:18;31.50;38.20
54938;DHT22;52756;52.826;6.214;2023-07-08T11:30:47;31.60;37.80
54938;DHT22;52756;52.826;6.214;2023-07-08T11:33:17;31.60;38.60
54938;DHT22;52756;52.826;6.214;2023-07-08T11:35:47;31.70;36.80
54938;DHT22;52756;52.826;6.214;2023-07-08T11:38:20;31.80;36.60
54938;DHT22;52756;52.826;6.214;2023-07-08T11:44:05;31.90;37.50
54938;DHT22;52756;52.826;6.214;2023-07-08T11:46:33;32.00;37.20
54938;DHT22;52756;52.826;6.214;2023-07-08T11:49:06;32.10;36.50
54938;DHT22;52756;52.826;6.214;2023-07-08T11:51:39;32.10;37.00
54938;DHT22;52756;52.826;6.214;2023-07-08T11:54:47;32.10;36.90
54938;DHT22;52756;52.826;6.214;2023-07-08T11:57:07;32.20;36.10
54938;DHT22;52756;52.826;6.214;2023-07-08T11:59:38;32.20;36.40
54938;DHT22;52756;52.826;6.214;2023-07-08T12:02:14;32.30;36.10
54938;DHT22;52756;52.826;6.214;2023-07-08T12:05:03;32.30;35.40
54938;DHT22;52756;52.826;6.214;2023-07-08T12:07:48;32.40;36.10
54938;DHT22;52756;52.826;6.214;2023-07-08T12:12:52;32.50;36.30
54938;DHT22;52756;52.826;6.214;2023-07-08T12:15:32;32.60;36.00
54938;DHT22;52756;52.826;6.214;2023-07-08T12:18:14;32.70;35.60
54938;DHT22;52756;52.826;6.214;2023-07-08T12:20:45;32.80;36.00
54938;DHT22;52756;52.826;6.214;2023-07-08T12:23:19;32.90;34.90
54938;DHT22;52756;52.826;6.214;2023-07-08T12:25:46;32.80;34.80
54938;DHT22;52756;52.826;6.214;2023-07-08T12:28:12;32.80;34.50
54938;DHT22;52756;52.826;6.214;2023-07-08T12:30:38;32.90;34.80
54938;DHT22;52756;52.826;6.214;2023-07-08T12:33:11;32.80;34.50
54938;DHT22;52756;52.826;6.214;2023-07-08T12:35:37;32.90;35.00
54938;DHT22;52756;52.826;6.214;2023-07-08T12:38:11;32.80;35.20
54938;DHT22;52756;52.826;6.214;2023-07-08T12:40:40;32.90;35.70
54938;DHT22;52756;52.826;6.214;2023-07-08T12:43:10;32.80;36.10
54938;DHT22;52756;52.826;6.214;2023-07-08T12:45:36;32.90;35.80
54938;DHT22;52756;52.826;6.214;2023-07-08T12:48:03;33.00;35.20
54938;DHT22;52756;52.826;6.214;2023-07-08T12:50:28;33.00;35.30
54938;DHT22;52756;52.826;6.214;2023-07-08T12:52:54;33.00;35.00
54938;DHT22;52756;52.826;6.214;2023-07-08T12:55:22;33.00;35.20
54938;DHT22;52756;52.826;6.214;2023-07-08T12:57:50;33.10;35.40
54938;DHT22;52756;52.826;6.214;2023-07-08T13:00:28;33.10;35.10
54938;DHT22;52756;52.826;6.214;2023-07-08T13:03:05;33.10;35.80
54938;DHT22;52756;52.826;6.214;2023-07-08T13:05:31;33.20;35.70
54938;DHT22;52756;52.826;6.214;2023-07-08T13:07:58;33.20;36.00
54938;DHT22;52756;52.826;6.214;2023-07-08T13:10:26;33.20;35.60
54938;DHT22;52756;52.826;6.214;2023-07-08T13:13:03;33.20;35.20
54938;DHT22;52756;52.826;6.214;2023-07-08T13:15:36;33.30;35.10
54938;DHT22;52756;52.826;6.214;2023-07-08T13:18:02;33.30;34.90
54938;DHT22;52756;52.826;6.214;2023-07-08T13:20:29;33.20;35.20
54938;DHT22;52756;52.826;6.214;2023-07-08T13:22:59;33.30;34.90
54938;DHT22;52756;52.826;6.214;2023-07-08T13:25:31;33.30;35.20
54938;DHT22;52756;52.826;6.214;2023-07-08T13:28:02;33.30;35.20
54938;DHT22;52756;52.826;6.214;2023-07-08T13:30:39;33.40;35.40
54938;DHT22;52756;52.826;6.214;2023-07-08T13:33:14;33.40;34.60
54938;DHT22;52756;52.826;6.214;2023-07-08T13:35:40;33.40;34.80
54938;DHT22;52756;52.826;6.214;2023-07-08T13:38:25;33.40;35.20
54938;DHT22;52756;52.826;6.214;2023-07-08T13:41:02;33.50;35.20
54938;DHT22;52756;52.826;6.214;2023-07-08T13:43:30;33.60;34.90
54938;DHT22;52756;52.826;6.214;2023-07-08T13:45:57;33.60;34.70
54938;DHT22;52756;52.826;6.214;2023-07-08T13:48:34;33.70;34.80
54938;DHT22;52756;52.826;6.214;2023-07-08T13:51:18;33.70;34.60
54938;DHT22;52756;52.826;6.214;2023-07-08T13:53:47;33.70;35.00
54938;DHT22;52756;52.826;6.214;2023-07-08T13:56:18;33.60;34.90
54938;DHT22;52756;52.826;6.214;2023-07-08T13:58:47;33.60;34.50
54938;DHT22;52756;52.826;6.214;2023-07-08T14:01:22;33.60;34.30
54938;DHT22;52756;52.826;6.214;2023-07-08T14:03:50;33.60;33.80
54938;DHT22;52756;52.826;6.214;2023-07-08T14:06:22;33.60;33.70
54938;DHT22;52756;52.826;6.214;2023-07-08T14:08:48;33.60;34.10
54938;DHT22;52756;52.826;6.214;2023-07-08T14:11:14;33.60;33.60
54938;DHT22;52756;52.826;6.214;2023-07-08T14:13:39;33.50;33.50
54938;DHT22;52756;52.826;6.214;2023-07-08T14:16:32;33.50;33.60
54938;DHT22;52756;52.826;6.214;2023-07-08T14:19:02;33.50;33.30
54938;DHT22;52756;52.826;6.214;2023-07-08T14:21:33;33.50;34.00
54938;DHT22;52756;52.826;6.214;2023-07-08T14:24:00;33.50;34.10
54938;DHT22;52756;52.826;6.214;2023-07-08T14:26:27;33.50;33.90
54938;DHT22;52756;52.826;6.214;2023-07-08T14:28:53;33.50;33.50
54938;DHT22;52756;52.826;6.214;2023-07-08T14:31:22;33.50;33.50
54938;DHT22;52756;52.826;6.214;2023-07-08T14:33:51;33.50;33.60
54938;DHT22;52756;52.826;6.214;2023-07-08T14:36:18;33.50;33.70
54938;DHT22;52756;52.826;6.214;2023-07-08T14:38:44;33.50;33.80
54938;DHT22;52756;52.826;6.214;2023-07-08T14:41:09;33.50;33.80
54938;DHT22;52756;52.826;6.214;2023-07-08T14:43:35;33.50;34.20
54938;DHT22;52756;52.826;6.214;2023-07-08T14:46:05;33.60;34.50
54938;DHT22;52756;52.826;6.214;2023-07-08T14:48:32;33.60;34.70
54938;DHT22;52756;52.826;6.214;2023-07-08T14:50:58;33.70;34.80
54938;DHT22;52756;52.826;6.214;2023-07-08T14:53:24;33.80;34.60
54938;DHT22;52756;52.826;6.214;2023-07-08T14:55:55;33.80;35.00
54938;DHT22;52756;52.826;6.214;2023-07-08T14:58:28;33.90;34.70
54938;DHT22;52756;52.826;6.214;2023-07-08T15:00:56;33.80;34.10
54938;DHT22;52756;52.826;6.214;2023-07-08T15:03:24;33.90;34.10
54938;DHT22;52756;52.826;6.214;2023-07-08T15:05:49;33.90;34.30
54938;DHT22;52756;52.826;6.214;2023-07-08T15:08:16;33.90;33.90
54938;DHT22;52756;52.826;6.214;2023-07-08T15:10:47;33.90;33.50
54938;DHT22;52756;52.826;6.214;2023-07-08T15:13:13;34.00;33.20
54938;DHT22;52756;52.826;6.214;2023-07-08T15:15:38;34.00;32.90
54938;DHT22;52756;52.826;6.214;2023-07-08T15:18:14;34.00;33.30
54938;DHT22;52756;52.826;6.214;2023-07-08T15:20:41;34.00;33.10
54938;DHT22;52756;52.826;6.214;2023-07-08T15:23:09;34.00;33.60
54938;DHT22;52756;52.826;6.214;2023-07-08T15:25:35;34.00;33.20
54938;DHT22;52756;52.826;6.214;2023-07-08T15:28:03;34.00;33.10
54938;DHT22;52756;52.826;6.214;2023-07-08T15:30:30;34.00;33.50
54938;DHT22;52756;52.826;6.214;2023-07-08T15:32:57;34.00;33.60
54938;DHT22;52756;52.826;6.214;2023-07-08T15:35:26;34.10;33.60
54938;DHT22;52756;52.826;6.214;2023-07-08T15:37:56;34.10;33.40
54938;DHT22;52756;52.826;6.214;2023-07-08T15:40:23;34.10;33.30
54938;DHT22;52756;52.826;6.214;2023-07-08T15:42:52;34.10;33.10
54938;DHT22;52756;52.826;6.214;2023-07-08T15:45:23;34.10;33.10
54938;DHT22;52756;52.826;6.214;2023-07-08T15:47:50;34.00;33.10
54938;DHT22;52756;52.826;6.214;2023-07-08T15:50:21;34.00;33.50
54938;DHT22;52756;52.826;6.214;2023-07-08T15:52:47;34.10;33.30
54938;DHT22;52756;52.826;6.214;2023-07-08T15:55:16;34.10;33.30
54938;DHT22;52756;52.826;6.214;2023-07-08T15:57:48;34.10;33.20
54938;DHT22;52756;52.826;6.214;2023-07-08T16:00:18;34.10;32.60
54938;DHT22;52756;52.826;6.214;2023-07-08T16:02:48;34.10;32.70
54938;DHT22;52756;52.826;6.214;2023-07-08T16:05:15;34.10;33.00
54938;DHT22;52756;52.826;6.214;2023-07-08T16:07:41;34.00;32.90
54938;DHT22;52756;52.826;6.214;2023-07-08T16:10:07;34.00;33.10
54938;DHT22;52756;52.826;6.214;2023-07-08T16:12:33;34.00;33.30
54938;DHT22;52756;52.826;6.214;2023-07-08T16:14:59;34.00;32.90
54938;DHT22;52756;52.826;6.214;2023-07-08T16:17:25;34.00;32.80
54938;DHT22;52756;52.826;6.214;2023-07-08T16:19:50;33.90;32.80
54938;DHT22;52756;52.826;6.214;2023-07-08T16:22:16;34.00;33.30
54938;DHT22;52756;52.826;6.214;2023-07-08T16:24:42;33.90;33.30
54938;DHT22;52756;52.826;6.214;2023-07-08T16:27:09;33.90;33.50
54938;DHT22;52756;52.826;6.214;2023-07-08T16:29:36;33.90;33.70